KITR

Details ICAO KITR
Name KIT CARSON COUNTY
Region United States
Timezone America/Denver (UTC-7.0)
Plans Departing 0
Arriving 2
Stats Elevation 4,219 ft / 1,286 m (AMSL)
Location 39.242510° -102.285377°
Runways 1
Magnetic Variation 6.698° E
Sunrise 2017-12-18 14:05:03 UTC / 2017-12-18 07:05:03 Local
Sunset 2017-12-18 23:29:26 UTC / 2017-12-18 16:29:26 Local
Advertisement - Login to hide

Runways

ID Width Length Bearing (true) Bearing (mag) Surface Threshold Offset Overrun Length
15 75 ft / 23 m 5,208 ft / 1,587 m 159.97° 153.27° Concrete 0 ft / 0 m 0 ft / 0 m
33 75 ft / 23 m 5,208 ft / 1,587 m 339.97° 333.27° Concrete 0 ft / 0 m 0 ft / 0 m

Map

Weather


0- 5 10 15 20 25 30 35+ Temperature / ° C

Clouds and Precipitation
Forecast for 2017-12-18 18:00 UTC. Updated an hour ago

Ground ~20,000 ft ~40,000 ft Winds

METAR

KITR 181553Z AUTO 23011KT 10SM CLR 01/M02 A3000 RMK AO2 SLP185 T00111017

TAF

Not found

Frequencies

Recorded 135.22 MHz ASOS
Unicom 122.80 MHz CTAF/UNICOM
Warning: Do not use this data for real-world aviation or navigation. No guarantee of current accuracy is given.